createdAt,value
2023-05-22T00:00:35.655Z,62.98
2023-05-22T00:03:06.259Z,62.77
2023-05-22T00:05:39.503Z,62.95
2023-05-22T00:08:11.799Z,63.16
2023-05-22T00:10:41.335Z,62.74
2023-05-22T00:13:13.379Z,62.89
2023-05-22T00:15:42.853Z,62.64
2023-05-22T00:18:13.867Z,62.82
2023-05-22T00:20:47.714Z,63.50
2023-05-22T00:23:17.369Z,63.15
2023-05-22T00:25:52.501Z,62.37
2023-05-22T00:28:24.708Z,62.94
2023-05-22T00:30:55.492Z,63.21
2023-05-22T00:33:24.899Z,63.12
2023-05-22T00:35:54.284Z,63.08
2023-05-22T00:38:35.005Z,62.76
2023-05-22T00:41:05.189Z,62.58
2023-05-22T00:43:37.389Z,62.93
2023-05-22T00:46:07.690Z,62.43
2023-05-22T00:48:37.406Z,62.70
2023-05-22T00:51:07.559Z,62.81
2023-05-22T00:53:37.318Z,62.89
2023-05-22T00:56:09.032Z,62.18
2023-05-22T00:58:41.430Z,63.03
2023-05-22T01:01:11.591Z,62.38
2023-05-22T01:03:42.664Z,62.62
2023-05-22T01:06:12.095Z,62.76
2023-05-22T01:08:41.535Z,62.62
2023-05-22T01:11:16.874Z,62.72
2023-05-22T01:13:56.560Z,62.29
2023-05-22T01:16:33.796Z,62.92
2023-05-22T01:19:12.577Z,62.26
2023-05-22T01:21:49.273Z,63.06
2023-05-22T01:24:52.472Z,62.61
2023-05-22T01:27:37.926Z,62.87
2023-05-22T01:30:30.325Z,62.98
2023-05-22T01:33:03.185Z,62.95
2023-05-22T01:35:36.198Z,62.88
2023-05-22T01:38:06.100Z,62.74
2023-05-22T01:40:35.597Z,62.27
2023-05-22T01:43:05.186Z,62.69
2023-05-22T01:45:35.121Z,62.83
2023-05-22T01:48:07.709Z,62.67
2023-05-22T01:50:37.876Z,62.55
2023-05-22T01:53:14.879Z,62.73
2023-05-22T01:55:56.019Z,62.94
2023-05-22T01:58:31.840Z,62.62
2023-05-22T02:01:03.902Z,62.10
2023-05-22T02:03:39.180Z,62.06
2023-05-22T02:06:12.037Z,62.17
2023-05-22T02:08:43.833Z,61.83
2023-05-22T02:11:16.689Z,62.08
2023-05-22T02:13:46.382Z,62.35
2023-05-22T02:16:15.950Z,62.14
2023-05-22T02:18:48.450Z,61.80
2023-05-22T02:21:17.837Z,62.27
2023-05-22T02:23:47.358Z,62.02
2023-05-22T02:26:16.752Z,61.58
2023-05-22T02:28:46.093Z,61.52
2023-05-22T02:31:16.412Z,61.56
2023-05-22T02:33:48.510Z,61.35
2023-05-22T02:36:17.937Z,61.44
2023-05-22T02:38:47.293Z,61.30
2023-05-22T02:41:16.671Z,61.30
2023-05-22T02:43:46.028Z,61.13
2023-05-22T02:46:18.137Z,61.70
2023-05-22T02:48:50.562Z,61.38
2023-05-22T02:51:20.386Z,61.37
2023-05-22T02:53:49.784Z,61.86
2023-05-22T02:56:19.221Z,62.50
2023-05-22T02:58:48.599Z,61.96
2023-05-22T03:01:17.997Z,62.51
2023-05-22T03:03:50.804Z,62.30
2023-05-22T03:06:20.389Z,61.99
2023-05-22T03:08:49.828Z,62.79
2023-05-22T03:11:21.570Z,62.44
2023-05-22T03:13:51.026Z,62.85
2023-05-22T03:16:21.915Z,62.65
2023-05-22T03:18:54.456Z,63.22
2023-05-22T03:21:23.817Z,62.87
2023-05-22T03:23:53.173Z,62.74
2023-05-22T03:26:22.820Z,62.93
2023-05-22T03:28:52.924Z,63.06
2023-05-22T03:31:23.016Z,63.21
2023-05-22T03:33:54.989Z,62.99
2023-05-22T03:36:25.362Z,62.73
2023-05-22T03:38:54.754Z,62.67
2023-05-22T03:41:24.254Z,63.32
2023-05-22T03:43:55.259Z,62.71
2023-05-22T03:46:24.755Z,63.19
2023-05-22T03:48:56.821Z,63.12
2023-05-22T03:51:26.225Z,63.44
2023-05-22T03:53:58.519Z,62.91
2023-05-22T03:56:30.817Z,63.52
2023-05-22T03:59:00.690Z,63.61
2023-05-22T04:01:31.135Z,63.73
2023-05-22T04:04:05.626Z,64.41
2023-05-22T04:06:43.264Z,64.61
2023-05-22T04:09:14.098Z,64.60
2023-05-22T04:11:43.545Z,63.94
2023-05-22T04:14:13.172Z,63.93
2023-05-22T04:16:42.509Z,63.96
2023-05-22T04:19:14.476Z,63.84
2023-05-22T04:21:44.264Z,63.33
2023-05-22T04:24:13.767Z,63.87
2023-05-22T04:26:43.398Z,63.47
2023-05-22T04:29:14.776Z,64.07
2023-05-22T04:31:44.710Z,64.00
2023-05-22T04:34:18.614Z,63.68
2023-05-22T04:36:48.204Z,63.48
2023-05-22T04:39:17.801Z,63.71
2023-05-22T04:41:47.179Z,63.10
2023-05-22T04:44:19.089Z,63.72
2023-05-22T04:46:50.789Z,63.91
2023-05-22T04:49:24.892Z,63.29
2023-05-22T04:51:55.276Z,64.27
2023-05-22T04:54:26.580Z,63.72
2023-05-22T04:56:56.137Z,63.44
2023-05-22T04:59:26.699Z,63.86
2023-05-22T05:01:56.162Z,63.79
2023-05-22T05:04:28.121Z,64.64
2023-05-22T05:06:57.717Z,64.42
2023-05-22T05:09:27.390Z,65.01
2023-05-22T05:11:58.366Z,65.17
2023-05-22T05:14:27.813Z,65.11
2023-05-22T05:16:58.880Z,65.07
2023-05-22T05:19:30.897Z,64.69
2023-05-22T05:22:00.791Z,64.68
2023-05-22T05:24:30.476Z,64.38
2023-05-22T05:26:59.950Z,64.51
2023-05-22T05:29:29.311Z,64.33
2023-05-22T05:31:58.712Z,64.42
2023-05-22T05:34:30.712Z,63.80
2023-05-22T05:37:00.108Z,63.76
2023-05-22T05:39:29.869Z,63.31
2023-05-22T05:41:59.234Z,63.83
2023-05-22T05:44:28.625Z,63.51
2023-05-22T05:46:58.093Z,63.89
2023-05-22T05:49:27.470Z,63.48
2023-05-22T05:51:59.646Z,64.43
2023-05-22T05:54:29.014Z,64.06
2023-05-22T05:56:58.400Z,63.58
2023-05-22T05:59:27.745Z,63.82
2023-05-22T06:01:57.204Z,64.06
2023-05-22T06:04:28.282Z,63.89
2023-05-22T06:07:04.013Z,63.54
2023-05-22T06:09:33.372Z,63.37
2023-05-22T06:12:03.890Z,63.45
2023-05-22T06:14:33.519Z,64.08
2023-05-22T06:17:02.898Z,63.56
2023-05-22T06:19:32.313Z,64.04
2023-05-22T06:22:07.781Z,64.17
2023-05-22T06:24:37.149Z,63.78
2023-05-22T06:27:06.664Z,64.12
2023-05-22T06:29:36.158Z,63.07
2023-05-22T06:32:05.602Z,63.30
2023-05-22T06:34:35.019Z,62.98
2023-05-22T06:37:07.126Z,63.98
2023-05-22T06:39:36.608Z,62.95
2023-05-22T06:42:06.205Z,63.43
2023-05-22T06:44:35.576Z,63.56
2023-05-22T06:47:05.009Z,63.87
2023-05-22T06:49:34.411Z,63.38
2023-05-22T06:52:05.324Z,63.57
2023-05-22T06:54:37.505Z,63.27
2023-05-22T06:57:07.083Z,63.44
2023-05-22T06:59:37.442Z,62.94
2023-05-22T07:02:07.042Z,64.15
2023-05-22T07:04:36.467Z,63.19
2023-05-22T07:07:05.847Z,63.22
2023-05-22T07:09:37.788Z,62.02
2023-05-22T07:12:08.237Z,62.63
2023-05-22T07:14:37.669Z,62.04
2023-05-22T07:17:07.459Z,62.09
2023-05-22T07:19:36.839Z,62.49
2023-05-22T07:22:06.850Z,62.50
2023-05-22T07:24:38.850Z,63.60
2023-05-22T07:27:09.339Z,63.41
2023-05-22T07:29:38.957Z,62.57
2023-05-22T07:32:09.120Z,62.54
2023-05-22T07:34:39.086Z,63.19
2023-05-22T07:37:10.824Z,62.88
2023-05-22T07:39:42.906Z,63.19
2023-05-22T07:42:14.760Z,62.76
2023-05-22T07:44:44.132Z,63.04
2023-05-22T07:47:13.531Z,63.80
2023-05-22T07:49:43.052Z,62.16
2023-05-22T07:52:12.422Z,62.17
2023-05-22T07:54:45.536Z,62.10
2023-05-22T07:57:16.679Z,63.33
2023-05-22T07:59:46.471Z,61.14
2023-05-22T08:02:16.280Z,62.03
2023-05-22T08:04:45.742Z,60.99
2023-05-22T08:07:15.568Z,61.02
2023-05-22T08:09:48.189Z,62.07
2023-05-22T08:12:17.584Z,61.65
2023-05-22T08:14:46.953Z,60.83
2023-05-22T08:17:16.423Z,60.19
2023-05-22T08:19:46.221Z,60.09
2023-05-22T08:22:15.853Z,60.24
2023-05-22T08:24:47.837Z,59.75
2023-05-22T08:27:17.489Z,60.06
2023-05-22T08:29:46.850Z,61.16
2023-05-22T08:32:16.380Z,59.57
2023-05-22T08:34:47.145Z,60.69
2023-05-22T08:37:16.982Z,59.81
2023-05-22T08:39:48.951Z,58.64
2023-05-22T08:42:18.359Z,58.44
2023-05-22T08:44:49.044Z,59.14
2023-05-22T08:47:20.714Z,59.40
2023-05-22T08:49:54.871Z,57.34
2023-05-22T08:52:26.436Z,56.83
2023-05-22T08:54:59.527Z,57.49
2023-05-22T08:57:29.497Z,57.09
2023-05-22T08:59:59.144Z,57.69
2023-05-22T09:02:29.557Z,56.41
2023-05-22T09:04:59.187Z,55.84
2023-05-22T09:07:30.125Z,56.67
2023-05-22T09:10:05.423Z,57.46
2023-05-22T09:12:35.014Z,57.50
2023-05-22T09:15:11.734Z,55.82
2023-05-22T09:17:42.656Z,56.14
2023-05-22T09:20:16.245Z,56.41
2023-05-22T09:22:45.802Z,56.87
2023-05-22T09:25:20.926Z,55.84
2023-05-22T09:27:50.944Z,56.13
2023-05-22T09:30:21.136Z,56.43
2023-05-22T09:32:51.796Z,54.90
2023-05-22T09:35:22.219Z,54.66
2023-05-22T09:37:52.754Z,55.50
2023-05-22T09:40:25.224Z,54.16
2023-05-22T09:42:54.606Z,54.44
2023-05-22T09:45:26.760Z,54.68
2023-05-22T09:47:56.219Z,54.73
2023-05-22T09:50:25.627Z,54.04
2023-05-22T09:52:55.959Z,54.38
2023-05-22T09:55:29.936Z,55.26
2023-05-22T09:58:00.216Z,54.13
2023-05-22T10:00:31.644Z,53.54
2023-05-22T10:03:05.380Z,54.48
2023-05-22T10:05:35.177Z,54.34
2023-05-22T10:08:13.521Z,54.52
2023-05-22T10:10:50.429Z,53.96
2023-05-22T10:13:20.165Z,53.98
2023-05-22T10:15:50.737Z,54.05
2023-05-22T10:18:20.672Z,54.24
2023-05-22T10:20:50.875Z,53.36
2023-05-22T10:23:20.633Z,53.70
2023-05-22T10:25:53.461Z,54.19
2023-05-22T10:28:27.499Z,53.68
2023-05-22T10:31:03.185Z,54.29
2023-05-22T10:33:36.726Z,52.94
2023-05-22T10:36:10.543Z,53.15
2023-05-22T10:39:10.472Z,53.34
2023-05-22T10:41:43.029Z,53.09
2023-05-22T10:44:12.630Z,52.46
2023-05-22T10:46:42.021Z,51.84
2023-05-22T10:49:11.407Z,52.36
2023-05-22T10:51:40.909Z,52.84
2023-05-22T10:54:10.309Z,52.43
2023-05-22T10:56:42.418Z,51.84
2023-05-22T10:59:11.832Z,52.38
2023-05-22T11:01:41.247Z,52.73
2023-05-22T11:04:16.159Z,51.15
2023-05-22T11:06:49.117Z,51.44
2023-05-22T11:09:32.319Z,51.20
2023-05-22T11:12:28.707Z,51.11
2023-05-22T11:15:01.182Z,51.48
2023-05-22T11:17:31.977Z,51.10
2023-05-22T11:20:05.138Z,51.11
2023-05-22T11:22:36.764Z,50.77
2023-05-22T11:25:10.889Z,50.94
2023-05-22T11:27:44.298Z,50.97
2023-05-22T11:30:14.507Z,49.82
2023-05-22T11:32:46.046Z,51.04
2023-05-22T11:35:17.613Z,50.03
2023-05-22T11:37:47.821Z,49.60
2023-05-22T11:40:19.093Z,49.41
2023-05-22T11:42:51.704Z,49.86
2023-05-22T11:45:21.636Z,47.42
2023-05-22T11:47:51.565Z,48.21
2023-05-22T11:50:33.506Z,49.00
2023-05-22T11:53:10.962Z,49.89
2023-05-22T11:55:40.356Z,48.36
2023-05-22T11:58:12.271Z,48.51
2023-05-22T12:00:42.508Z,49.10
2023-05-22T12:03:12.146Z,48.24
2023-05-22T12:05:41.619Z,47.55
2023-05-22T12:08:11.113Z,47.67
2023-05-22T12:10:40.809Z,48.34
2023-05-22T12:13:12.909Z,46.81
2023-05-22T12:15:42.746Z,47.74
2023-05-22T12:18:12.532Z,47.67
2023-05-22T12:20:45.455Z,48.52
2023-05-22T12:23:15.238Z,48.49
2023-05-22T12:25:44.701Z,47.96
2023-05-22T12:28:16.666Z,47.89
2023-05-22T12:30:46.039Z,48.42
2023-05-22T12:33:16.745Z,48.33
2023-05-22T12:35:46.339Z,47.66
2023-05-22T12:38:15.979Z,48.38
2023-05-22T12:40:46.324Z,47.59
2023-05-22T12:43:18.328Z,48.28
2023-05-22T12:45:47.899Z,48.13
2023-05-22T12:48:17.534Z,48.56
2023-05-22T12:50:47.537Z,47.17
2023-05-22T12:53:17.617Z,47.63
2023-05-22T12:55:46.982Z,46.79
2023-05-22T12:58:19.000Z,47.45
2023-05-22T13:00:48.349Z,47.24
2023-05-22T13:03:17.768Z,46.88
2023-05-22T13:05:47.373Z,47.43
2023-05-22T13:08:16.778Z,47.38
2023-05-22T13:10:46.204Z,47.32
2023-05-22T13:13:15.579Z,47.77
2023-05-22T13:15:48.144Z,47.77
2023-05-22T13:18:17.800Z,48.82
2023-05-22T13:20:47.209Z,49.01
2023-05-22T13:23:16.591Z,47.97
2023-05-22T13:25:46.297Z,46.95
2023-05-22T13:28:15.653Z,46.60
2023-05-22T13:30:47.644Z,47.43
2023-05-22T13:33:17.047Z,47.65
2023-05-22T13:35:46.524Z,47.80
2023-05-22T13:38:15.996Z,46.50
2023-05-22T13:40:48.216Z,47.67
2023-05-22T13:43:17.931Z,48.01
2023-05-22T13:45:50.399Z,47.08
2023-05-22T13:48:19.875Z,47.56
2023-05-22T13:50:49.234Z,47.86
2023-05-22T13:53:18.608Z,47.87
2023-05-22T13:55:47.964Z,48.05
2023-05-22T13:58:17.421Z,47.95
2023-05-22T14:00:47.046Z,48.23
2023-05-22T14:03:19.951Z,47.74
2023-05-22T14:05:49.381Z,47.87
2023-05-22T14:08:18.783Z,47.39
2023-05-22T14:10:48.179Z,47.76
2023-05-22T14:13:18.090Z,48.25
2023-05-22T14:15:48.043Z,48.28
2023-05-22T14:18:20.069Z,48.36
2023-05-22T14:20:49.815Z,48.53
2023-05-22T14:23:19.420Z,48.74
2023-05-22T14:25:49.573Z,49.40
2023-05-22T14:28:19.141Z,49.59
2023-05-22T14:30:48.577Z,48.71
2023-05-22T14:33:20.601Z,48.58
2023-05-22T14:35:51.754Z,48.83
2023-05-22T14:38:21.158Z,49.16
2023-05-22T14:40:51.444Z,49.67
2023-05-22T14:43:20.812Z,48.83
2023-05-22T14:45:50.563Z,49.30
2023-05-22T14:48:26.296Z,49.70
2023-05-22T14:50:56.322Z,49.59
2023-05-22T14:53:26.177Z,49.66
2023-05-22T14:55:55.580Z,48.50
2023-05-22T14:58:24.933Z,49.95
2023-05-22T15:00:54.317Z,50.03
2023-05-22T15:03:26.452Z,50.85
2023-05-22T15:05:55.808Z,51.30
2023-05-22T15:08:25.201Z,51.03
2023-05-22T15:10:54.797Z,51.43
2023-05-22T15:13:24.147Z,51.59
2023-05-22T15:15:53.757Z,50.27
2023-05-22T15:18:27.084Z,50.71
2023-05-22T15:20:56.868Z,50.88
2023-05-22T15:23:27.349Z,50.43
2023-05-22T15:25:56.989Z,50.48
2023-05-22T15:28:26.359Z,51.00
2023-05-22T15:30:55.785Z,51.22
2023-05-22T15:33:27.752Z,51.61
2023-05-22T15:35:57.648Z,51.34
2023-05-22T15:38:28.352Z,51.20
2023-05-22T15:40:57.785Z,51.30
2023-05-22T15:43:27.928Z,52.13
2023-05-22T15:45:57.331Z,51.44
2023-05-22T15:48:29.350Z,52.12
2023-05-22T15:50:59.283Z,51.82
2023-05-22T15:53:29.067Z,52.30
2023-05-22T15:55:58.438Z,51.83
2023-05-22T15:58:31.249Z,52.00
2023-05-22T16:01:00.728Z,52.24
2023-05-22T16:03:32.937Z,53.47
2023-05-22T16:06:02.385Z,56.20
2023-05-22T16:08:31.757Z,57.47
2023-05-22T16:11:03.442Z,59.05
2023-05-22T16:13:33.209Z,60.45
2023-05-22T16:16:03.479Z,61.45
2023-05-22T16:18:35.801Z,63.05
2023-05-22T16:21:05.178Z,65.94
2023-05-22T16:23:34.711Z,66.63
2023-05-22T16:26:09.306Z,68.01
2023-05-22T16:28:38.652Z,68.63
2023-05-22T16:31:08.860Z,70.88
2023-05-22T16:33:40.867Z,71.61
2023-05-22T16:36:10.703Z,73.51
2023-05-22T16:38:40.075Z,74.21
2023-05-22T16:41:09.417Z,73.97
2023-05-22T16:43:39.717Z,74.40
2023-05-22T16:46:09.128Z,74.90
2023-05-22T16:48:41.077Z,73.96
2023-05-22T16:51:11.533Z,76.95
2023-05-22T16:53:42.985Z,78.26
2023-05-22T16:56:12.497Z,79.32
2023-05-22T16:58:41.841Z,77.94
2023-05-22T17:01:11.576Z,77.15
2023-05-22T17:03:43.617Z,79.53
2023-05-22T17:06:13.105Z,78.60
2023-05-22T17:08:42.509Z,77.21
2023-05-22T17:11:11.916Z,78.12
2023-05-22T17:13:41.397Z,77.04
2023-05-22T17:16:10.845Z,76.73
2023-05-22T17:18:42.888Z,74.00
2023-05-22T17:21:12.272Z,73.29
2023-05-22T17:23:41.655Z,75.06
2023-05-22T17:26:11.077Z,80.98
2023-05-22T17:28:40.513Z,80.02
2023-05-22T17:31:10.104Z,80.46
2023-05-22T17:33:39.549Z,82.51
2023-05-22T17:36:11.604Z,84.46
2023-05-22T17:38:41.096Z,85.59
2023-05-22T17:41:10.450Z,83.14
2023-05-22T17:43:39.880Z,83.68
2023-05-22T17:46:09.377Z,81.54
2023-05-22T17:48:40.986Z,80.95
2023-05-22T17:51:13.017Z,77.95
2023-05-22T17:53:42.394Z,78.20
2023-05-22T17:56:11.942Z,74.93
2023-05-22T17:58:41.418Z,74.71
2023-05-22T18:01:10.804Z,73.28
2023-05-22T18:03:40.275Z,72.38
2023-05-22T18:06:10.200Z,72.31
2023-05-22T18:08:42.653Z,74.29
2023-05-22T18:11:12.148Z,72.84
2023-05-22T18:13:41.662Z,72.46
2023-05-22T18:16:11.446Z,72.56
2023-05-22T18:18:41.206Z,75.42
2023-05-22T18:21:10.884Z,75.87
2023-05-22T18:23:43.166Z,76.24
2023-05-22T18:26:12.851Z,76.56
2023-05-22T18:28:42.654Z,76.23
2023-05-22T18:31:12.125Z,76.81
2023-05-22T18:33:44.875Z,76.14
2023-05-22T18:36:15.059Z,75.60
2023-05-22T18:38:47.039Z,78.22
2023-05-22T18:41:16.429Z,78.34
2023-05-22T18:43:45.902Z,77.98
2023-05-22T18:46:15.320Z,75.97
2023-05-22T18:48:44.748Z,74.44
2023-05-22T18:51:14.248Z,75.97
2023-05-22T18:53:43.630Z,74.04
2023-05-22T18:56:15.636Z,75.23
2023-05-22T18:58:45.063Z,76.24
2023-05-22T19:01:16.799Z,78.57
2023-05-22T19:03:46.283Z,78.96
2023-05-22T19:06:16.152Z,78.61
2023-05-22T19:08:45.954Z,77.71
2023-05-22T19:11:17.934Z,77.72
2023-05-22T19:13:47.732Z,76.71
2023-05-22T19:16:17.454Z,76.93
2023-05-22T19:18:46.934Z,74.52
2023-05-22T19:21:16.342Z,75.00
2023-05-22T19:23:46.139Z,74.41
2023-05-22T19:26:18.108Z,72.95
2023-05-22T19:28:47.515Z,74.45
2023-05-22T19:31:17.722Z,74.20
2023-05-22T19:33:47.147Z,74.45
2023-05-22T19:36:16.561Z,78.73
2023-05-22T19:38:45.928Z,78.17
2023-05-22T19:41:18.624Z,78.93
2023-05-22T19:43:48.051Z,78.34
2023-05-22T19:46:17.507Z,83.07
2023-05-22T19:48:47.010Z,84.48
2023-05-22T19:51:16.787Z,82.47
2023-05-22T19:53:46.328Z,82.25
2023-05-22T19:56:20.212Z,80.82
2023-05-22T19:58:49.613Z,80.50
2023-05-22T20:01:19.210Z,81.29
2023-05-22T20:03:48.737Z,81.13
2023-05-22T20:06:18.163Z,81.44
2023-05-22T20:08:48.619Z,79.82
2023-05-22T20:11:20.671Z,82.25
2023-05-22T20:13:50.124Z,82.91
2023-05-22T20:16:19.568Z,83.01
2023-05-22T20:18:49.063Z,83.29
2023-05-22T20:21:18.544Z,83.27
2023-05-22T20:23:53.613Z,83.69
2023-05-22T20:26:26.227Z,82.91
2023-05-22T20:28:56.776Z,80.23
2023-05-22T20:31:26.206Z,79.28
2023-05-22T20:33:55.676Z,78.28
2023-05-22T20:36:25.259Z,77.00
2023-05-22T20:38:58.701Z,76.43
2023-05-22T20:41:30.864Z,76.47
2023-05-22T20:44:00.686Z,75.63
2023-05-22T20:46:30.152Z,74.97
2023-05-22T20:48:59.915Z,74.46
2023-05-22T20:51:33.666Z,76.15
2023-05-22T20:54:03.203Z,75.24
2023-05-22T20:56:35.218Z,74.67
2023-05-22T20:59:04.603Z,75.27
2023-05-22T21:01:34.001Z,74.71
2023-05-22T21:04:03.462Z,74.67
2023-05-22T21:06:33.093Z,74.32
2023-05-22T21:09:02.524Z,75.25
2023-05-22T21:11:31.857Z,75.81
2023-05-22T21:14:03.853Z,75.08
2023-05-22T21:16:33.305Z,74.16
2023-05-22T21:19:02.938Z,75.77
2023-05-22T21:21:32.717Z,75.96
2023-05-22T21:24:04.606Z,74.16
2023-05-22T21:26:36.597Z,74.67
2023-05-22T21:29:08.768Z,74.76
2023-05-22T21:31:40.133Z,76.08
2023-05-22T21:34:09.986Z,76.75
2023-05-22T21:36:39.401Z,76.15
2023-05-22T21:39:10.757Z,75.85
2023-05-22T21:41:41.983Z,75.41
2023-05-22T21:44:15.860Z,75.59
2023-05-22T21:46:45.221Z,75.99
2023-05-22T21:49:14.734Z,75.28
2023-05-22T21:51:44.248Z,77.19
2023-05-22T21:54:16.216Z,76.76
2023-05-22T21:56:45.707Z,76.62
2023-05-22T21:59:18.097Z,79.31
2023-05-22T22:01:47.508Z,76.51
2023-05-22T22:04:16.873Z,77.09
2023-05-22T22:06:48.182Z,77.96
2023-05-22T22:09:17.600Z,79.34
2023-05-22T22:11:48.784Z,77.96
2023-05-22T22:14:20.865Z,78.43
2023-05-22T22:16:50.834Z,77.31
2023-05-22T22:19:20.534Z,78.28
2023-05-22T22:21:50.047Z,77.30
2023-05-22T22:24:19.670Z,78.14
2023-05-22T22:26:49.338Z,79.45
2023-05-22T22:29:21.343Z,79.58
2023-05-22T22:31:50.736Z,78.36
2023-05-22T22:34:20.250Z,78.20
2023-05-22T22:36:49.599Z,76.39
2023-05-22T22:39:18.953Z,77.11
2023-05-22T22:41:48.511Z,78.63
2023-05-22T22:44:17.862Z,77.50
2023-05-22T22:46:49.803Z,77.74
2023-05-22T22:49:21.797Z,79.24
2023-05-22T22:51:51.928Z,80.85
2023-05-22T22:54:21.343Z,79.51
2023-05-22T22:56:51.522Z,79.49
2023-05-22T22:59:21.230Z,80.54
2023-05-22T23:01:53.341Z,80.88
2023-05-22T23:04:22.997Z,82.34
2023-05-22T23:06:54.091Z,82.65
2023-05-22T23:09:23.482Z,82.36
2023-05-22T23:11:56.120Z,82.94
2023-05-22T23:14:25.532Z,82.99
2023-05-22T23:16:57.490Z,83.41
2023-05-22T23:19:27.028Z,83.08
2023-05-22T23:21:56.420Z,83.07
2023-05-22T23:24:25.820Z,82.79
2023-05-22T23:26:55.656Z,83.40
2023-05-22T23:29:25.053Z,82.93
2023-05-22T23:31:59.665Z,82.31
2023-05-22T23:34:29.119Z,82.28
2023-05-22T23:36:58.465Z,82.26
2023-05-22T23:39:27.853Z,82.60
2023-05-22T23:41:57.186Z,83.21
2023-05-22T23:44:26.529Z,83.19
2023-05-22T23:46:59.593Z,83.95
2023-05-22T23:49:29.144Z,84.34
2023-05-22T23:51:58.504Z,85.45
2023-05-22T23:54:27.991Z,84.13
2023-05-22T23:56:57.418Z,83.54
2023-05-22T23:59:26.827Z,81.61
